Map

Track Data

SID SEASON NUMBER BASIN SUBBASIN NAME ISO_TIME NATURE LAT LON WMO_WIND WMO_PRES WMO_AGENCY TRACK_TYPE DIST2LAND LANDFALL IFLAG USA_AGENCY USA_ATCF_ID USA_LAT USA_LON USA_RECORD USA_STATUS USA_WIND USA_PRES USA_SSHS USA_R34_NE USA_R34_SE USA_R34_SW USA_R34_NW USA_R50_NE USA_R50_SE USA_R50_SW USA_R50_NW USA_R64_NE USA_R64_SE USA_R64_SW USA_R64_NW USA_POCI USA_ROCI USA_RMW USA_EYE TOKYO_LAT TOKYO_LON TOKYO_GRADE TOKYO_WIND TOKYO_PRES TOKYO_R50_DIR TOKYO_R50_LONG TOKYO_R50_SHORT TOKYO_R30_DIR TOKYO_R30_LONG TOKYO_R30_SHORT TOKYO_LAND CMA_LAT CMA_LON CMA_CAT CMA_WIND CMA_PRES HKO_LAT HKO_LON HKO_CAT HKO_WIND HKO_PRES NEWDELHI_LAT NEWDELHI_LON NEWDELHI_GRADE NEWDELHI_WIND NEWDELHI_PRES NEWDELHI_CI NEWDELHI_DP NEWDELHI_POCI REUNION_LAT REUNION_LON REUNION_TYPE REUNION_WIND REUNION_PRES REUNION_TNUM REUNION_CI REUNION_RMW REUNION_R34_NE REUNION_R34_SE REUNION_R34_SW REUNION_R34_NW REUNION_R50_NE REUNION_R50_SE REUNION_R50_SW REUNION_R50_NW REUNION_R64_NE REUNION_R64_SE REUNION_R64_SW REUNION_R64_NW BOM_LAT BOM_LON BOM_TYPE BOM_WIND BOM_PRES BOM_TNUM BOM_CI BOM_RMW BOM_R34_NE BOM_R34_SE BOM_R34_SW BOM_R34_NW BOM_R50_NE BOM_R50_SE BOM_R50_SW BOM_R50_NW BOM_R64_NE BOM_R64_SE BOM_R64_SW BOM_R64_NW BOM_ROCI BOM_POCI BOM_EYE BOM_POS_METHOD BOM_PRES_METHOD NADI_LAT NADI_LON NADI_CAT NADI_WIND NADI_PRES WELLINGTON_LAT WELLINGTON_LON WELLINGTON_WIND WELLINGTON_PRES DS824_LAT DS824_LON DS824_STAGE DS824_WIND DS824_PRES TD9636_LAT TD9636_LON TD9636_STAGE TD9636_WIND TD9636_PRES TD9635_LAT TD9635_LON TD9635_WIND TD9635_PRES TD9635_ROCI NEUMANN_LAT NEUMANN_LON NEUMANN_CLASS NEUMANN_WIND NEUMANN_PRES MLC_LAT MLC_LON MLC_CLASS MLC_WIND MLC_PRES USA_GUST BOM_GUST BOM_GUST_PER REUNION_GUST REUNION_GUST_PER USA_SEAHGT USA_SEARAD_NE USA_SEARAD_SE USA_SEARAD_SW USA_SEARAD_NW STORM_SPEED STORM_DIR
1957261N10147 1957 60 WP MM FAYE 1957-09-17 18:00:00 TS 9.65000 147.300 1008 tokyo main 1322 1311 _OO___________ -1 9.70000 147.200 2 1008 0 0 0 9.60000 147.400 1 29 1008 9 297
1957261N10147 1957 60 WP MM FAYE 1957-09-17 21:00:00 TS 9.85882 146.888 main 1344 1344 _PP___________ -1 9.87011 146.805 2 994 0 0 9.84753 146.970 1 43 997 9 301
1957261N10147 1957 60 WP MM FAYE 1957-09-18 00:00:00 TS 10.1000 146.550 980 tokyo main 1367 1367 OOO______OOO__ jtwc_wp WP131957 10.1000 146.700 90 2 10.1000 146.400 9 980 0 0 0 10.1000 146.500 3 58 987 10.1000 146.700 TC 90 10.1000 146.700 4 90 10.1000 146.700 90 982 120 10 304
1957261N10147 1957 60 WP MM FAYE 1957-09-18 03:00:00 TS 10.4245 146.030 main 1402 1402 PPP______PPP__ WP131957 10.5055 146.023 90 2 10.4149 145.973 9 980 0 0 10.3576 145.978 3 63 985 10.5055 146.023 TC 90 10.3349 146.271 4 91 10.5055 146.023 90 982 180 12 302
1957261N10147 1957 60 WP MM FAYE 1957-09-18 06:00:00 TS 10.7048 145.551 980 tokyo main 1438 1438 OOO______OPO__ jtwc_wp WP131957 10.8000 145.500 90 2 10.7000 145.500 9 980 0 0 0 10.6000 145.500 4 68 983 10.8000 145.500 TC 90 10.5656 145.843 4 92 10.8000 145.500 90 982 240 9 298
1957261N10147 1957 60 WP MM FAYE 1957-09-18 09:00:00 TS 10.8642 145.195 main 1464 1464 PPP______PPP__ WP131957 10.9222 145.220 92 2 10.8152 144.912 9 975 0 0 10.8148 145.177 4 77 977 10.9222 145.220 TC 92 10.7885 145.419 4 93 10.9222 145.220 92 976 210 7 293
1957261N10147 1957 60 WP MM FAYE 1957-09-18 12:00:00 TS 10.9833 144.883 970 tokyo main 1479 1479 OOO______OOO__ jtwc_wp WP131957 11.0000 145.000 95 2 10.9000 144.400 9 970 0 0 0 11.0000 144.900 5 87 972 11.0000 145.000 TC 95 11.0000 145.000 4 95 11.0000 145.000 95 971 180 7 295
1957261N10147 1957 60 WP MM FAYE 1957-09-18 15:00:00 TS 11.1622 144.535 main 1508 1508 PPP______PPP__ WP131957 11.1850 144.630 97 3 11.0773 144.170 9 962 0 0 11.1425 144.565 5 96 965 11.1850 144.630 TC 97 11.1988 144.587 4 98 11.1850 144.630 97 963 180 8 298
1957261N10147 1957 60 WP MM FAYE 1957-09-18 18:00:00 TS 11.3653 144.162 955 tokyo main 1535 1535 OOO______OPO__ jtwc_wp WP131957 11.4000 144.200 100 3 11.3000 144.000 9 955 0 0 0 11.3000 144.200 6 106 958 11.4000 144.200 TC 100 11.3921 144.172 4 102 11.4000 144.200 100 956 180 9 299
1957261N10147 1957 60 WP MM FAYE 1957-09-18 21:00:00 TS 11.5878 143.749 main 1568 1568 PPP______PPP__ WP131957 11.6150 143.750 105 3 11.5500 143.680 9 947 0 0 11.5424 143.815 6 116 952 11.6150 143.750 TC 105 11.5893 143.746 4 106 11.6150 143.750 105 949 150 9 298
1957261N10147 1957 60 WP MM FAYE 1957-09-19 00:00:00 TS 11.8000 143.317 940 tokyo main 1599 1599 OOO______OOO__ jtwc_wp WP131957 11.8000 143.300 110 3 11.8000 143.300 9 940 0 0 0 11.8000 143.400 6 126 946 11.8000 143.300 TC 110 11.8000 143.300 4 110 11.8000 143.300 110 943 120 9 293
1957261N10147 1957 60 WP MM FAYE 1957-09-19 03:00:00 TS 11.9408 142.917 main 1599 1599 PPP______PPP__ WP131957 11.8698 142.922 115 4 11.9925 142.907 9 937 0 0 11.9998 142.980 6 135 940 11.8698 142.922 TC 115 12.0433 142.846 4 112 11.8698 142.922 115 939 150 9 291
1957261N10147 1957 60 WP MM FAYE 1957-09-19 06:00:00 TS 12.1166 142.478 935 tokyo main 1606 1603 OOO______OPO__ jtwc_wp WP131957 12.0000 142.500 120 4 12.2000 142.500 9 935 0 0 0 12.2000 142.500 6 145 935 12.0000 142.500 TC 120 12.2993 142.367 4 115 12.0000 142.500 120 935 180 11 298
1957261N10147 1957 60 WP MM FAYE 1957-09-19 09:00:00 TS 12.4359 141.957 main 1623 1623 PPP______PPP__ WP131957 12.3775 141.938 120 4 12.4922 142.145 9 935 0 0 12.4350 141.930 6 145 933 12.3775 141.938 TC 120 12.5557 141.855 4 117 12.3775 141.938 120 933 180 13 302
1957261N10147 1957 60 WP MM FAYE 1957-09-19 12:00:00 TS 12.7833 141.367 935 tokyo main 1640 1634 OOO______OOO__ jtwc_wp WP131957 12.8000 141.300 120 4 12.8000 141.700 9 935 0 0 0 12.7000 141.300 6 145 932 12.8000 141.300 TC 120 12.8000 141.300 4 120 12.8000 141.300 120 932 180 14 297
1957261N10147 1957 60 WP MM FAYE 1957-09-19 15:00:00 TS 13.0541 140.724 main 1638 1576 PPP______PPP__ WP131957 13.0874 140.657 122 4 13.0729 141.008 9 935 0 0 12.9999 140.650 6 145 931 13.0874 140.657 TC 122 12.9896 140.716 4 122 13.0874 140.657 122 931 180 14 291
1957261N10147 1957 60 WP MM FAYE 1957-09-19 18:00:00 TS 13.2782 140.065 935 tokyo main 1576 1513 OOO______OPO__ jtwc_wp WP131957 13.3000 140.000 125 4 13.3000 140.300 9 935 0 0 0 13.3000 140.000 6 145 931 13.3000 140.000 TC 125 13.1692 140.088 4 125 13.3000 140.000 125 931 180 13 288
1957261N10147 1957 60 WP MM FAYE 1957-09-19 21:00:00 TS 13.4382 139.477 main 1513 1453 PPP______PPP__ WP131957 13.4272 139.364 127 4 13.4337 139.924 9 935 0 0 13.5495 139.430 6 145 930 13.4272 139.364 TC 127 13.3643 139.416 4 127 13.4272 139.364 127 930 180 13 287
1957261N10147 1957 60 WP MM FAYE 1957-09-20 00:00:00 TS 13.6333 138.833 935 tokyo main 1442 1375 OOO______OOO__ jtwc_wp WP131957 13.6000 138.700 130 4 13.6000 139.400 9 935 0 0 0 13.8000 138.800 6 145 930 13.6000 138.700 TC 130 13.6000 138.700 4 130 13.6000 138.700 130 929 180 15 291
1957261N10147 1957 60 WP MM FAYE 1957-09-20 03:00:00 TS 13.9793 138.016 main 1366 1288 PPP______PPP__ WP131957 13.9773 137.980 132 4 13.9365 138.253 9 932 0 0 14.1002 137.973 6 150 929 13.9773 137.980 TC 132 13.9070 137.931 4 132 13.9773 137.980 132 928 210 18 294
1957261N10147 1957 60 WP MM FAYE 1957-09-20 06:00:00 TS 14.3592 137.137 930 tokyo main 1279 1199 OOO______OPO__ jtwc_wp WP131957 14.4000 137.200 135 4 14.3000 137.000 9 930 0 0 0 14.4000 137.100 6 155 928 14.4000 137.200 TC 135 14.2553 137.123 4 135 14.4000 137.200 135 928 240 18 292
1957261N10147 1957 60 WP MM FAYE 1957-09-20 09:00:00 TS 14.6628 136.303 main 1201 1122 PPP______PPP__ WP131957 14.7225 136.350 137 5 14.5416 136.132 9 940 0 0 14.6421 136.335 6 145 934 14.7225 136.350 TC 137 14.6257 136.303 4 137 14.7225 136.350 137 933 240 17 290
1957261N10147 1957 60 WP MM FAYE 1957-09-20 12:00:00 TS 14.9500 135.500 950 tokyo main 1125 1059 OOO______OOO__ jtwc_wp WP131957 15.0000 135.500 140 5 14.8000 135.400 9 950 0 0 0 14.9000 135.600 6 136 940 15.0000 135.500 TC 140 15.0000 135.500 4 140 15.0000 135.500 140 938 240 16 291
1957261N10147 1957 60 WP MM FAYE 1957-09-20 15:00:00 TS 15.2495 134.732 main 1049 993 PPP______PPP__ WP131957 15.2272 134.727 130 4 15.1923 134.628 9 955 0 0 15.2498 134.850 6 126 949 15.2272 134.727 TC 130 15.3737 134.733 4 132 15.2272 134.727 130 944 210 16 293
1957261N10147 1957 60 WP MM FAYE 1957-09-20 18:00:00 TS 15.5740 133.998 960 tokyo main 993 938 OOO______OPO__ jtwc_wp WP131957 15.5000 134.000 120 4 15.6000 133.900 9 960 0 0 0 15.6000 134.100 6 116 958 15.5000 134.000 TC 120 15.7442 133.990 4 125 15.5000 134.000 120 950 180 16 297
1957261N10147 1957 60 WP MM FAYE 1957-09-20 21:00:00 TS 15.9698 133.286 main 942 892 PPP______PPP__ WP131957 15.9798 133.286 115 4 15.9297 133.235 9 967 0 0 15.8572 133.350 6 106 966 15.9798 133.286 TC 115 16.0926 133.277 4 117 15.9798 133.286 115 956 180 15 299
1957261N10147 1957 60 WP MM FAYE 1957-09-21 00:00:00 TS 16.3167 132.600 975 tokyo main 892 849 OOO______OOO__ jtwc_wp WP131957 16.4000 132.600 110 3 16.2000 132.600 9 975 0 0 0 16.1000 132.600 5 97 974 16.4000 132.600 TC 110 16.4000 132.600 4 110 16.4000 132.600 110 962 180 14 291
1957261N10147 1957 60 WP MM FAYE 1957-09-21 03:00:00 TS 16.4753 131.917 main 840 795 PPP______PPP__ WP131957 16.4649 131.926 105 3 16.4148 131.950 9 975 0 0 16.4000 131.820 5 87 976 16.4649 131.926 TC 105 16.6422 131.955 4 106 16.4649 131.926 105 967 180 13 283
1957261N10147 1957 60 WP MM FAYE 1957-09-21 06:00:00 TS 16.6073 131.274 975 tokyo main 795 749 OOO______OPO__ jtwc_wp WP131957 16.5000 131.300 100 3 16.6000 131.300 9 975 0 0 0 16.7000 131.100 4 77 978 16.5000 131.300 TC 100 16.8438 131.346 4 102 16.5000 131.300 100 972 180 13 289
1957261N10147 1957 60 WP MM FAYE 1957-09-21 09:00:00 TS 16.8783 130.684 main 754 717 PPP______PPP__ WP131957 16.8347 130.735 97 3 16.7775 130.627 9 977 0 0 16.9647 130.505 4 77 979 16.8347 130.735 TC 97 17.0236 130.764 4 98 16.8347 130.735 97 976 180 12 297
1957261N10147 1957 60 WP MM FAYE 1957-09-21 12:00:00 TS 17.1667 130.133 980 tokyo main 713 680 OOO______OOO__ jtwc_wp WP131957 17.2000 130.200 95 2 17.0000 130.000 9 980 0 0 0 17.2000 130.000 4 77 980 17.2000 130.200 TC 95 17.2000 130.200 4 95 17.2000 130.200 95 981 180 12 295
1957261N10147 1957 60 WP MM FAYE 1957-09-21 15:00:00 TS 17.3715 129.596 main 680 644 PPP______PPP__ WP131957 17.3648 129.650 92 2 17.3422 129.478 9 980 0 0 17.3922 129.542 4 72 984 17.3648 129.650 TC 92 17.3998 129.607 4 92 17.3648 129.650 92 986 150 11 292
1957261N10147 1957 60 WP MM FAYE 1957-09-21 18:00:00 TS 17.5667 129.072 980 tokyo main 651 626 OOO______OPO__ jtwc_wp WP131957 17.5000 129.100 90 2 17.7000 129.000 9 980 0 0 0 17.6000 129.100 4 68 988 17.5000 129.100 TC 90 17.5999 129.032 4 90 17.5000 129.100 90 991 120 11 294
1957261N10147 1957 60 WP MM FAYE 1957-09-21 21:00:00 TS 17.8204 128.535 main 618 596 PPP______PPP__ WP131957 17.7499 128.543 87 2 17.9724 128.492 9 985 0 0 17.9000 128.600 4 63 992 17.7499 128.543 TC 87 17.8000 128.491 4 87 17.7499 128.543 87 992 120 11 296
1957261N10147 1957 60 WP MM FAYE 1957-09-22 00:00:00 TS 18.0667 128.017 990 tokyo main 596 546 OOO______OOO__ jtwc_wp WP131957 18.0000 128.000 85 2 18.2000 128.000 9 990 0 0 0 18.2000 128.100 3 58 996 18.0000 128.000 TC 85 18.0000 128.000 4 85 18.0000 128.000 85 993 120 11 294
1957261N10147 1957 60 WP MM FAYE 1957-09-22 03:00:00 TS 18.2478 127.522 main 546 506 PPP______PPP__ WP131957 18.1500 127.455 82 1 18.4073 127.542 9 992 0 0 18.4223 127.650 3 53 997 18.1500 127.455 TC 82 18.2073 127.574 4 83 18.1500 127.455 82 993 150 10 292
1957261N10147 1957 60 WP MM FAYE 1957-09-22 06:00:00 TS 18.4190 127.083 995 tokyo main 506 475 OOO______OPO__ jtwc_wp WP131957 18.3000 127.000 80 1 18.6000 127.100 9 995 0 0 0 18.6000 127.200 3 48 998 18.3000 127.000 TC 80 18.4140 127.197 4 82 18.3000 127.000 80 994 180 8 297
1957261N10147 1957 60 WP MM FAYE 1957-09-22 09:00:00 TS 18.6329 126.740 main 464 434 PPP______PPP__ WP131957 18.5421 126.750 80 1 18.7999 126.650 9 995 0 0 18.7575 126.692 3 48 998 18.5421 126.750 TC 80 18.6137 126.846 4 81 18.5421 126.750 80 993 180 8 304
1957261N10147 1957 60 WP MM FAYE 1957-09-22 12:00:00 TS 18.8500 126.400 995 tokyo main 435 395 OOO______OOO__ jtwc_wp WP131957 18.8000 126.500 80 1 19.0000 126.200 9 995 0 0 0 18.9000 126.200 3 48 998 18.8000 126.500 TC 80 18.8000 126.500 4 80 18.8000 126.500 80 992 180 9 299
1957261N10147 1957 60 WP MM FAYE 1957-09-22 15:00:00 TS 19.0548 125.929 main 387 348 PPP______PPP__ WP131957 19.0229 126.000 80 1 19.2226 125.705 9 995 0 0 19.0649 125.763 3 48 998 19.0229 126.000 TC 80 18.9725 126.105 4 80 19.0229 126.000 80 991 180 9 293
1957261N10147 1957 60 WP MM FAYE 1957-09-22 18:00:00 TS 19.2217 125.485 995 tokyo main 348 321 OOO______OPO__ jtwc_wp WP131957 19.2000 125.500 80 1 19.4000 125.300 9 995 0 0 0 19.2000 125.400 3 48 998 19.2000 125.500 TC 80 19.1301 125.712 4 80 19.2000 125.500 80 991 180 7 291
1957261N10147 1957 60 WP MM FAYE 1957-09-22 21:00:00 TS 19.3244 125.198 main 321 305 PPP______PPP__ WP131957 19.3148 125.205 80 1 19.4723 125.112 9 995 0 0 19.2574 125.120 3 48 997 19.3148 125.205 TC 80 19.2726 125.339 4 80 19.3148 125.205 80 990 150 5 291
1957261N10147 1957 60 WP MM FAYE 1957-09-23 00:00:00 TS 19.4000 124.983 995 tokyo main 305 290 OOO______OOO__ jtwc_wp WP131957 19.4000 125.000 80 1 19.5000 125.000 9 995 0 0 0 19.3000 124.900 3 48 997 19.4000 125.000 TC 80 19.4000 125.000 4 80 19.4000 125.000 80 989 120 4 293
1957261N10147 1957 60 WP MM FAYE 1957-09-23 03:00:00 TS 19.4933 124.771 main 290 276 PPP______PPP__ WP131957 19.4999 124.807 80 1 19.5575 124.800 9 995 0 0 19.3924 124.700 3 48 997 19.4999 124.807 TC 80 19.5100 124.706 4 78 19.4999 124.807 80 988 120 4 295
1957261N10147 1957 60 WP MM FAYE 1957-09-23 06:00:00 TS 19.5845 124.558 995 tokyo main 276 255 OOO______OPO__ jtwc_wp WP131957 19.6000 124.600 80 1 19.6000 124.600 9 995 0 0 0 19.5000 124.500 3 48 997 19.6000 124.600 TC 80 19.6071 124.447 4 77 19.6000 124.600 80 987 120 5 291
1957261N10147 1957 60 WP MM FAYE 1957-09-23 09:00:00 TS 19.6630 124.307 main 255 238 PPP______PPP__ WP131957 19.6926 124.307 77 1 19.6000 124.442 9 995 0 0 19.6000 124.265 3 48 997 19.6926 124.307 TC 77 19.7007 124.215 4 76 19.6926 124.307 77 986 150 5 289
1957261N10147 1957 60 WP MM FAYE 1957-09-23 12:00:00 TS 19.7500 124.050 995 tokyo main 245 222 OOO______OOO__ jtwc_wp WP131957 19.8000 124.000 75 1 19.6000 124.300 9 995 0 0 0 19.7000 124.000 3 48 997 19.8000 124.000 TC 75 19.8000 124.000 4 75 19.8000 124.000 75 986 180 5 293
1957261N10147 1957 60 WP MM FAYE 1957-09-23 15:00:00 TS 19.8619 123.804 main 230 216 PPP______PPP__ WP131957 19.9500 123.728 72 1 19.6274 124.172 9 995 0 0 19.7926 123.685 3 48 997 19.9500 123.728 TC 72 19.9014 123.781 4 73 19.9500 123.728 72 985 180 5 298
1957261N10147 1957 60 WP MM FAYE 1957-09-23 18:00:00 TS 19.9854 123.580 995 tokyo main 225 218 OOO______OPO__ jtwc_wp WP131957 20.1000 123.500 70 1 19.7000 124.000 9 995 0 0 0 19.9000 123.400 3 48 997 20.1000 123.500 TC 70 20.0124 123.577 4 72 20.1000 123.500 70 984 180 5 302
1957261N10147 1957 60 WP MM FAYE 1957-09-23 21:00:00 TS 20.1007 123.394 main 222 217 PPP______PPP__ WP131957 20.1999 123.342 70 1 19.8200 123.722 9 995 0 0 20.0424 123.227 3 48 997 20.1999 123.342 TC 70 20.1421 123.384 4 71 20.1999 123.342 70 983 180 4 306
1957261N10147 1957 60 WP MM FAYE 1957-09-24 00:00:00 TS 20.2333 123.217 995 tokyo main 222 222 OOO______OOO__ jtwc_wp WP131957 20.3000 123.200 70 1 20.0000 123.400 9 995 0 0 0 20.2000 123.100 3 48 997 20.3000 123.200 TC 70 20.3000 123.200 4 70 20.3000 123.200 70 982 180 5 307
1957261N10147 1957 60 WP MM FAYE 1957-09-24 03:00:00 TS 20.3799 122.997 main 235 232 PPP______PPP__ WP131957 20.4200 123.000 70 1 20.2126 123.055 9 992 0 0 20.3350 122.942 3 48 997 20.4200 123.000 TC 70 20.4720 122.982 4 68 20.4200 123.000 70 981 210 5 311
1957261N10147 1957 60 WP MM FAYE 1957-09-24 06:00:00 TS 20.5792 122.796 990 tokyo main 244 223 OOO______OPO__ jtwc_wp WP131957 20.6000 122.800 70 1 20.5000 122.800 9 990 0 0 0 20.5000 122.800 3 48 997 20.6000 122.800 TC 70 20.6751 122.776 4 67 20.6000 122.800 70 980 240 6 325
1957261N10147 1957 60 WP MM FAYE 1957-09-24 09:00:00 TS 20.8501 122.646 main 208 192 PPP______PPP__ WP131957 20.8625 122.628 67 1 20.8849 122.732 9 987 0 0 20.7125 122.655 3 53 994 20.8625 122.628 TC 67 20.9157 122.607 4 66 20.8625 122.628 67 979 240 6 341
1957261N10147 1957 60 WP MM FAYE 1957-09-24 12:00:00 TS 21.1833 122.567 985 tokyo main 192 171 OOO______OOO__ jtwc_wp WP131957 21.2000 122.500 65 1 21.3000 122.800 9 985 0 0 0 21.0000 122.600 3 58 991 21.2000 122.500 TC 65 21.2000 122.500 4 65 21.2000 122.500 65 979 240 7 351
1957261N10147 1957 60 WP MM FAYE 1957-09-24 15:00:00 TS 21.5519 122.537 main 168 166 PPP______PPP__ WP131957 21.5925 122.405 62 0 21.6500 122.913 9 982 0 0 21.3774 122.690 3 58 988 21.5925 122.405 TC 62 21.5067 122.402 4 63 21.5925 122.405 62 975 210 8 1
1957261N10147 1957 60 WP MM FAYE 1957-09-24 18:00:00 TS 21.9431 122.596 980 tokyo main 175 160 OOO______OPO__ jtwc_wp WP131957 22.0000 122.400 60 0 22.0000 123.100 9 980 0 0 0 21.8000 122.900 3 58 986 22.0000 122.400 TC 60 21.8586 122.378 4 62 22.0000 122.400 60 972 180 8 13
1957261N10147 1957 60 WP MM FAYE 1957-09-24 21:00:00 TS 22.3125 122.724 main 160 154 PPP______PPP__ WP131957 22.3421 122.446 60 0 22.3851 123.357 9 977 0 0 22.2076 123.185 3 63 983 22.3421 122.446 TC 60 22.2562 122.465 4 61 22.3421 122.446 60 970 210 8 25
1957261N10147 1957 60 WP MM FAYE 1957-09-25 00:00:00 TS 22.7000 122.983 975 tokyo main 169 167 OOO______OOO__ jtwc_wp WP131957 22.7000 122.700 60 0 22.8000 123.600 9 975 0 0 0 22.6000 123.500 4 68 981 22.7000 122.700 TC 60 22.7000 122.700 2 60 22.7000 122.700 60 968 240 10 38
1957261N10147 1957 60 WP MM FAYE 1957-09-25 03:00:00 TS 23.1173 123.397 main 204 204 PPP______PPP__ WP131957 23.1132 123.297 62 0 23.2346 123.656 9 967 0 0 22.9347 123.728 4 72 977 23.1132 123.297 TC 62 23.1947 123.106 2 63 23.1132 123.297 62 967 210 12 44
1957261N10147 1957 60 WP MM FAYE 1957-09-25 06:00:00 TS 23.5881 123.910 960 tokyo main 226 226 OOO______OPO__ jtwc_wp WP131957 23.6000 124.000 65 1 23.7000 123.800 9 960 0 0 0 23.3000 124.000 4 77 973 23.6000 124.000 TC 65 23.7284 123.661 2 66 23.6000 124.000 65 967 180 14 42
1957261N10147 1957 60 WP MM FAYE 1957-09-25 09:00:00 TS 24.1401 124.413 main 257 255 PPP______PPP__ WP131957 24.2069 124.500 67 1 24.1928 124.282 9 955 0 0 23.7547 124.383 4 82 969 24.2069 124.500 TC 67 24.2727 124.310 2 69 24.2069 124.500 68 964 180 15 41
1957261N10147 1957 60 WP MM FAYE 1957-09-25 12:00:00 TS 24.7000 124.967 950 tokyo main 304 303 OOO______OOO__ jtwc_wp WP131957 24.8000 125.000 70 1 24.7000 124.900 9 950 0 0 0 24.3000 124.900 5 87 965 24.8000 125.000 TC 70 24.8000 125.000 3 72 24.8000 125.000 72 961 180 15 46
1957261N10147 1957 60 WP MM FAYE 1957-09-25 15:00:00 TS 25.1694 125.566 main 362 362 PPP______PPP__ WP131957 25.2149 125.621 77 1 25.2068 125.413 9 950 0 0 24.9427 125.570 5 92 961 25.2149 125.621 TC 77 25.2225 125.549 3 76 25.2149 125.621 78 958 180 15 51
1957261N10147 1957 60 WP MM FAYE 1957-09-25 18:00:00 TS 25.6221 126.223 950 tokyo main 427 427 OOO______OPO__ jtwc_wp WP131957 25.6000 126.300 85 2 25.7000 126.000 9 950 0 0 0 25.6000 126.300 5 97 957 25.6000 126.300 TC 85 25.6327 126.138 3 81 25.6000 126.300 85 955 180 15 52
1957261N10147 1957 60 WP MM FAYE 1957-09-25 21:00:00 TS 26.0851 126.855 main 506 506 PPP______PPP__ WP131957 26.0533 126.912 87 2 26.1336 126.690 9 952 0 0 26.1405 126.871 5 106 954 26.0533 126.912 TC 87 26.0768 126.832 3 85 26.0533 126.912 87 952 210 16 53
1957261N10147 1957 60 WP MM FAYE 1957-09-26 00:00:00 TS 26.6167 127.667 955 tokyo main 568 466 OOO______OOO__ jtwc_wp WP131957 26.6000 127.700 90 2 26.6000 127.600 9 955 0 0 0 26.7000 127.600 6 116 951 26.6000 127.700 TC 90 26.6000 127.700 4 90 26.6000 127.700 90 950 240 21 56
1957261N10147 1957 60 WP MM FAYE 1957-09-26 03:00:00 TS 27.2590 128.810 main 452 350 PPP______PPP__ WP131957 27.2627 128.845 92 2 27.1475 128.804 9 955 0 0 27.3926 128.730 6 106 954 27.2627 128.845 TC 92 27.2261 128.792 4 90 27.2627 128.845 92 950 210 26 59
1957261N10147 1957 60 WP MM FAYE 1957-09-26 06:00:00 TS 27.9716 130.162 955 tokyo main 338 267 OOO______OPO__ jtwc_wp WP131957 28.0000 130.200 95 2 27.8000 130.200 9 955 0 0 0 28.1000 130.100 5 97 958 28.0000 130.200 TC 95 27.9297 130.071 4 90 28.0000 130.200 95 951 180 28 59
1957261N10147 1957 60 WP MM FAYE 1957-09-26 09:00:00 TS 28.6988 131.555 main 270 258 PPP______PPP__ WP131957 28.7413 131.564 92 2 28.5844 131.635 9 960 0 0 28.6917 131.515 5 92 962 28.7413 131.564 TC 92 28.6930 131.490 4 90 28.7413 131.564 92 955 180 29 59
1957261N10147 1957 60 WP MM FAYE 1957-09-26 12:00:00 TS 29.4500 133.017 965 tokyo main 261 267 OOO______OOO__ jtwc_wp WP131957 29.5000 133.000 90 2 29.4000 133.100 9 965 0 0 0 29.3000 133.000 5 87 966 29.5000 133.000 TC 90 29.5000 133.000 4 90 29.5000 133.000 90 960 180 29 60
1957261N10147 1957 60 WP MM FAYE 1957-09-26 15:00:00 TS 30.1778 134.477 main 312 278 PPP______PPP__ WP131957 30.2175 134.452 85 2 30.0887 134.453 9 967 0 0 29.9884 134.488 5 82 972 30.2175 134.452 TC 85 30.3372 134.562 4 85 30.2175 134.452 86 963 210 30 60
1957261N10147 1957 60 WP MM FAYE 1957-09-26 18:00:00 TS 30.9555 136.005 970 tokyo main 268 230 OOO______OPO__ jtwc_wp WP131957 31.0000 136.000 80 1 30.8000 135.900 9 970 0 0 0 30.8000 136.000 4 77 979 31.0000 136.000 TC 80 31.1921 136.168 4 80 31.0000 136.000 82 967 240 32 58
1957261N10147 1957 60 WP MM FAYE 1957-09-26 21:00:00 TS 31.8665 137.605 main 237 215 PPP______PPP__ WP131957 31.9376 137.625 75 1 31.6496 137.632 9 982 0 0 31.7777 137.412 4 62 987 31.9376 137.625 TC 75 32.0510 137.816 4 75 31.9376 137.625 76 971 240 34 58
1957261N10147 1957 60 WP MM FAYE 1957-09-27 00:00:00 TS 32.8000 139.420 995 tokyo main 208 186 OOO______OOO__ jtwc_wp WP131957 32.9000 139.500 70 1 32.5000 139.500 9 995 0 0 0 32.8000 139.100 3 48 995 32.9000 139.500 TC 70 32.9000 139.500 4 70 32.9000 139.500 70 976 240 39 62
1957261N10147 1957 60 WP MM FAYE 1957-09-27 03:00:00 TS 33.6715 141.724 main 205 205 PPP______P_P__ WP131957 33.8134 141.933 65 1 33.2476 141.484 9 997 0 0 33.7715 141.542 3 43 997 33.8134 141.933 TC 65 4 33.7520 141.734 64 980 240 41 67
1957261N10147 1957 60 WP MM FAYE 1957-09-27 06:00:00 TS 34.3588 143.918 1000 tokyo main 308 308 OOO______O_O__ jtwc_wp WP131957 34.5000 144.200 60 0 33.9000 143.200 9 1000 0 0 0 34.5000 144.000 2 38 1000 34.5000 144.200 TC 60 4 34.5000 144.200 58 984 240 30 70
1957261N10147 1957 60 WP MM FAYE 1957-09-27 09:00:00 TS 34.7195 145.131 main 396 396 PPP______P____ WP131957 34.7434 145.380 55 0 34.5449 144.081 9 1000 0 0 34.8463 145.685 2 38 1001 34.7434 145.380 TC 55 4 20 72
1957261N10147 1957 60 WP MM FAYE 1957-09-27 12:00:00 MX 35.0000 146.275 1000 tokyo main 494 494 OOO______O____ jtwc_wp WP131957 35.0000 146.500 50 0 35.0000 145.000 9 1000 0 0 0 35.0000 147.100 9 38 1003 35.0000 146.500 TC 50 26 75
1957261N10147 1957 60 WP MM FAYE 1957-09-27 15:00:00 MX 35.3802 148.234 main 659 659 PPP______P____ WP131957 35.7200 148.651 47 0 35.0142 146.919 9 1000 0 0 35.0664 148.714 9 1003 35.7200 148.651 TC 47 34 76
1957261N10147 1957 60 WP MM FAYE 1957-09-27 18:00:00 MX 35.8250 150.325 1000 tokyo main 826 826 OOO______O____ jtwc_wp WP131957 36.5000 151.000 45 0 35.0000 149.000 6 1000 0 0 0 35.3000 150.300 9 1003 36.5000 151.000 TC 45 32 73
1957261N10147 1957 60 WP MM FAYE 1957-09-27 21:00:00 MX 36.3423 152.008 main 936 936 PPP______P____ WP131957 37.0536 152.830 42 0 35.2747 150.503 6 1000 0 0 35.9872 151.871 9 1003 37.0536 152.830 TC 42 29 66
1957261N10147 1957 60 WP MM FAYE 1957-09-28 00:00:00 MX 36.9750 153.575 1000 tokyo main 972 972 OOO______O____ jtwc_wp WP131957 37.5000 154.500 40 0 36.0000 152.000 6 1000 0 0 0 36.9000 153.300 9 1003 37.5000 154.500 TC 40 29 62
1957261N10147 1957 60 WP MM FAYE 1957-09-28 03:00:00 MX 37.7119 155.211 main 989 978 PPP______P____ WP131957 37.8567 156.144 37 0 37.3900 154.112 6 1001 0 0 37.7440 154.444 9 1003 37.8567 156.144 TC 37 30 60
1957261N10147 1957 60 WP MM FAYE 1957-09-28 06:00:00 MX 38.5000 156.900 1002 tokyo main 986 986 OOO______O____ jtwc_wp WP131957 38.2000 158.000 35 0 38.9000 156.100 6 1002 0 0 0 38.7000 155.500 9 1003 38.2000 158.000 TC 35 32 60
1957261N10147 1957 60 WP MM FAYE 1957-09-28 09:00:00 MX 39.2818 158.735 main 1010 1010 PPP______P____ WP131957 38.6275 160.607 40 0 39.9654 157.075 6 1002 0 0 39.9066 156.651 9 1003 38.6275 160.607 TC 40 31 63
1957261N10147 1957 60 WP MM FAYE 1957-09-28 12:00:00 MX 39.9500 160.500 1002 tokyo main 1060 1060 OOO______O____ jtwc_wp WP131957 39.0000 163.000 45 0 40.8000 158.000 6 1002 0 0 0 41.0000 158.000 9 1003 39.0000 163.000 TC 45 28 64
1957261N10147 1957 60 WP MM FAYE 1957-09-28 15:00:00 MX 40.5109 161.990 main 1121 1121 PPP______P____ WP131957 39.2626 164.229 45 0 41.6975 159.868 6 1003 0 0 41.8208 159.633 9 1003 39.2626 164.229 TC 45 23 70
1957261N10147 1957 60 WP MM FAYE 1957-09-28 18:00:00 MX 40.7500 163.375 1004 tokyo main 1194 1204 OOO______O____ jtwc_wp WP131957 39.5000 165.000 45 0 42.0000 162.000 6 1004 0 0 0 42.0000 161.500 9 1003 39.5000 165.000 TC 45 22 91
1957261N10147 1957 60 WP MM FAYE 1957-09-28 21:00:00 MX 40.4583 164.881 main 1283 1283 PPP______P____ WP131957 39.7491 166.001 45 0 41.1725 163.903 6 997 0 0 41.1625 163.618 9 1001 39.7491 166.001 TC 45 23 109
1957261N10147 1957 60 WP MM FAYE 1957-09-29 00:00:00 MX 40.0000 166.200 990 tokyo main 1387 1387 OOO______O____ jtwc_wp WP131957 40.0000 167.000 45 0 40.0000 165.400 6 990 0 0 0 40.0000 165.400 9 1000 40.0000 167.000 TC 45 19 110
1957261N10147 1957 60 WP MM FAYE 1957-09-29 03:00:00 MX 39.8074 167.157 main 1452 1452 PPP______P____ WP131957 40.2491 168.001 47 0 39.3626 166.296 6 992 0 0 39.3687 166.331 9 997 40.2491 168.001 TC 47 14 102
1957261N10147 1957 60 WP MM FAYE 1957-09-29 06:00:00 MX 39.7000 168.000 994 tokyo main 1499 1499 OOO______O____ jtwc_wp WP131957 40.5000 169.000 50 0 38.9000 167.000 6 994 0 0 0 38.9000 167.000 9 994 40.5000 169.000 TC 50 13 98
1957261N10147 1957 60 WP MM FAYE 1957-09-29 09:00:00 MX 39.6113 168.870 main 1553 1553 PPP______P____ WP131957 40.8218 169.922 50 0 38.4370 167.816 6 995 0 0 38.3646 167.818 9 995 40.8218 169.922 TC 50 16 94
1957261N10147 1957 60 WP MM FAYE 1957-09-29 12:00:00 MX 39.5800 170.067 996 tokyo main 1616 1616 OOO______O____ jtwc_wp WP131957 41.0000 171.000 50 0 38.0000 169.000 6 996 0 0 0 37.9000 169.000 9 996 41.0000 171.000 TC 50 23 96
1957261N10147 1957 60 WP MM FAYE 1957-09-29 15:00:00 MX 39.3614 171.809 main 1725 1725 PPP______P____ WP131957 40.8644 172.464 47 0 37.2687 170.995 6 998 0 0 37.5346 170.814 9 998 40.8644 172.464 TC 47 28 99
1957261N10147 1957 60 WP MM FAYE 1957-09-29 18:00:00 MX 39.1692 173.615 1000 tokyo main 1833 1833 OOO______O____ jtwc_wp WP131957 40.5000 174.000 45 0 37.0000 173.000 6 1000 0 0 0 37.2000 173.000 9 1000 40.5000 174.000 TC 45 25 90
1957261N10147 1957 60 WP MM FAYE 1957-09-29 21:00:00 MX 39.3644 175.051 main 1893 1882 PP_______P____ WP131957 39.9991 175.350 42 0 38.0950 174.453 6 996 0 0 9 39.9991 175.350 TC 42 19 82
1957261N10147 1957 60 WP MM FAYE 1957-09-30 00:00:00 MX 39.4333 176.100 992 tokyo main 1882 1868 OO_______O____ jtwc_wp WP131957 39.5000 176.500 40 0 39.3000 175.300 6 992 0 0 0 39.5000 176.500 TC 40 12 97
1957261N10147 1957 60 WP MM FAYE 1957-09-30 03:00:00 MX 39.2230 176.609 main 1878 1874 PP_______P____ WP131957 39.1857 177.325 37 0 39.2974 175.177 6 995 0 0 39.1857 177.325 TC 37 8 124
1957261N10147 1957 60 WP MM FAYE 1957-09-30 06:00:00 MX 39.0000 176.920 998 tokyo main 1884 1854 OO_______O____ jtwc_wp WP131957 39.0000 178.200 35 0 39.0000 175.000 6 998 0 0 0 39.0000 178.200 TC 35 8 105
1957261N10147 1957 60 WP MM FAYE 1957-09-30 09:00:00 MX 39.0192 177.611 main 1854 1816 PP_______P____ WP131957 38.8890 179.472 35 0 39.1494 175.750 6 998 0 0 38.8890 179.472 TC 35 11 83
1957261N10147 1957 60 WP MM FAYE 1957-09-30 12:00:00 MX 39.1333 178.333 998 tokyo main 1816 1816 OO_______O____ jtwc_wp WP131957 38.8000 -179.000 35 0 39.3000 177.000 6 998 0 0 0 38.8000 181.000 TC 35 5 89
1957261N10147 1957 60 WP MM FAYE 1957-09-30 15:00:00 ET 39.0313 178.292 main 1825 1764 _P____________ WP131957 -1 39.0313 178.292 6 999 0 0 TC 13 96
1957261N10147 1957 60 EP CP FAYE 1957-09-30 18:00:00 ET 39.0000 180.000 1000 tokyo main 1760 1624 _O____________ -1 39.0000 180.000 6 1000 0 0 0 32 78
1957261N10147 1957 60 EP CP FAYE 1957-09-30 21:00:00 ET 39.6915 182.293 main 1610 1435 _P____________ -1 39.6915 -177.707 6 999 0 0 42 65
1957261N10147 1957 60 EP CP FAYE 1957-10-01 00:00:00 ET 40.8000 185.000 main 1419 _O____________ -1 40.8000 185.000 6 998 0 0 0 47 62

Digital Typhoon Data and Search

About IBTrACS Database

This database is a web-friendly format of International Best Track Archive for Climate Stewardship (IBTrACS), a global best track data archive curated by NOAA dating back to 1842.

Updated: 2021-11-26